Time;durP1;ratioP1;P1;durP2;ratioP2;P2;SDS_P1;SDS_P2;PMS_P1;PMS_P2;Temp;Humidity;BMP_temperature;BMP_pressure;BME280_temperature;BME280_humidity;BME280_pressure;Samples;Min_cycle;Max_cycle;Signal;HPM_P1;HPM_P2
2022/10/27 00:00:38;;;;;;;18.02;8.25;;;12.90;99.90;;;;;;5055608;28;20037;-70
2022/10/27 00:03:04;;;;;;;15.85;7.60;;;12.90;99.90;;;;;;5055248;28;20049;-70
2022/10/27 00:05:29;;;;;;;19.85;8.70;;;13.00;99.90;;;;;;5039151;28;20051;-70
2022/10/27 00:07:55;;;;;;;19.50;8.20;;;13.00;99.90;;;;;;5038866;28;20045;-71
2022/10/27 00:10:21;;;;;;;15.30;8.30;;;13.00;99.90;;;;;;5038986;28;20492;-70
2022/10/27 00:12:47;;;;;;;20.50;8.93;;;12.90;99.90;;;;;;5071769;28;20389;-71
2022/10/27 00:15:13;;;;;;;19.52;8.55;;;13.00;99.90;;;;;;5038717;28;20045;-70
2022/10/27 00:17:40;;;;;;;14.20;8.77;;;13.00;99.90;;;;;;5055557;28;20044;-71
2022/10/27 00:20:07;;;;;;;18.23;8.65;;;12.90;99.90;;;;;;5055173;28;20067;-71
2022/10/27 00:22:33;;;;;;;16.48;8.88;;;12.80;99.90;;;;;;5072081;28;20489;-70
2022/10/27 00:24:58;;;;;;;15.40;9.15;;;12.80;99.90;;;;;;5055214;28;20489;-70
2022/10/27 00:27:24;;;;;;;17.40;9.05;;;12.80;99.90;;;;;;5055266;28;20130;-70
2022/10/27 00:29:50;;;;;;;21.92;9.95;;;12.80;99.90;;;;;;5071865;28;20559;-70
2022/10/27 00:32:16;;;;;;;14.30;8.88;;;12.80;99.90;;;;;;5071876;28;20478;-70
2022/10/27 00:34:41;;;;;;;18.25;9.63;;;12.80;99.90;;;;;;5038524;28;20052;-71
2022/10/27 00:37:07;;;;;;;21.75;10.07;;;12.70;99.90;;;;;;5055207;28;20056;-70
2022/10/27 00:39:33;;;;;;;26.52;10.95;;;12.80;99.90;;;;;;5021803;28;20045;-70
2022/10/27 00:41:58;;;;;;;24.65;10.20;;;12.80;99.90;;;;;;5038206;28;20124;-71
2022/10/27 00:44:37;;;;;;;17.15;8.68;;;12.80;99.90;;;;;;5055039;28;20044;-70
2022/10/27 00:47:12;;;;;;;19.05;9.90;;;12.70;99.90;;;;;;5054800;28;20048;-71
2022/10/27 00:49:56;;;;;;;20.70;9.15;;;12.70;99.90;;;;;;5055048;28;20461;-71
2022/10/27 00:52:40;;;;;;;20.92;9.98;;;12.60;99.90;;;;;;5038394;28;20053;-70
2022/10/27 00:55:33;;;;;;;20.73;10.60;;;12.60;99.90;;;;;;5054665;28;20044;-70
2022/10/27 00:58:05;;;;;;;22.67;10.70;;;12.60;99.90;;;;;;5049950;28;20059;-70
2022/10/27 01:00:33;;;;;;;21.38;9.98;;;12.60;99.90;;;;;;5038178;28;20397;-70
2022/10/27 01:02:59;;;;;;;23.10;10.82;;;12.60;99.90;;;;;;5070505;28;20512;-70
2022/10/27 01:05:27;;;;;;;21.90;10.65;;;12.60;99.90;;;;;;5054457;28;20049;-71
2022/10/27 01:07:58;;;;;;;24.75;10.43;;;12.50;99.90;;;;;;5054396;28;20037;-70
2022/10/27 01:10:25;;;;;;;18.83;10.75;;;12.50;99.90;;;;;;5037977;28;20504;-70
2022/10/27 01:12:51;;;;;;;19.60;10.52;;;12.40;99.90;;;;;;5037474;28;20447;-71
2022/10/27 01:15:17;;;;;;;21.00;12.02;;;12.40;99.90;;;;;;5054477;28;20040;-70
2022/10/27 01:17:53;;;;;;;21.48;10.95;;;12.50;99.90;;;;;;5054103;28;20053;-72
2022/10/27 01:20:42;;;;;;;23.23;12.00;;;12.50;99.90;;;;;;5037539;28;20375;-70
2022/10/27 01:23:20;;;;;;;18.70;10.73;;;12.60;99.90;;;;;;5035331;28;20430;-70
2022/10/27 01:26:11;;;;;;;26.45;11.68;;;12.70;99.90;;;;;;5054268;28;20048;-70
2022/10/27 01:28:46;;;;;;;19.88;11.43;;;12.70;99.90;;;;;;5054179;28;20557;-70
2022/10/27 01:31:44;;;;;;;23.92;12.18;;;12.90;99.90;;;;;;5053787;28;20056;-71
2022/10/27 01:34:28;;;;;;;20.75;11.50;;;12.90;99.90;;;;;;5045323;28;20405;-70
2022/10/27 01:37:07;;;;;;;21.27;10.93;;;12.90;99.90;;;;;;5037239;28;20477;-70
2022/10/27 01:39:40;;;;;;;25.00;11.73;;;12.90;99.90;;;;;;5053758;28;20082;-70
2022/10/27 01:42:20;;;;;;;22.50;11.77;;;12.90;99.90;;;;;;5053804;28;20135;-70
2022/10/27 01:44:48;;;;;;;23.05;12.18;;;12.80;99.90;;;;;;5053923;28;20041;-70
2022/10/27 01:47:15;;;;;;;23.00;11.30;;;12.80;99.90;;;;;;5053649;28;20485;-70
2022/10/27 01:49:42;;;;;;;28.98;12.82;;;12.80;99.90;;;;;;5053542;28;20458;-70
2022/10/27 01:52:46;;;;;;;27.70;12.68;;;12.80;99.90;;;;;;5037049;28;20167;-70
2022/10/27 01:55:23;;;;;;;25.63;13.05;;;12.70;99.90;;;;;;5053386;28;20060;-70
2022/10/27 01:58:07;;;;;;;25.95;12.10;;;12.80;99.90;;;;;;5053728;28;20052;-70
2022/10/27 02:01:02;;;;;;;25.98;12.50;;;12.80;99.90;;;;;;5053310;28;20040;-70
2022/10/27 02:03:46;;;;;;;23.90;12.40;;;12.90;99.90;;;;;;5052742;28;20060;-70
2022/10/27 02:06:19;;;;;;;27.50;12.98;;;13.00;99.90;;;;;;5036696;28;20140;-70
2022/10/27 02:09:07;;;;;;;31.30;13.65;;;13.00;99.90;;;;;;5053537;28;20060;-71
2022/10/27 02:11:37;;;;;;;28.17;13.00;;;13.10;99.90;;;;;;5053415;28;20047;-71
2022/10/27 02:14:04;;;;;;;25.67;14.05;;;13.20;99.90;;;;;;5053109;28;20052;-71
2022/10/27 02:16:33;;;;;;;25.08;13.38;;;13.20;99.90;;;;;;5053124;28;20084;-70
2022/10/27 02:19:09;;;;;;;25.50;12.75;;;13.30;99.90;;;;;;5052635;28;20106;-71
2022/10/27 02:21:36;;;;;;;24.38;13.82;;;13.40;99.90;;;;;;5053156;28;20477;-71
2022/10/27 02:24:04;;;;;;;26.98;12.90;;;13.30;99.90;;;;;;5052941;28;20490;-70
2022/10/27 02:26:44;;;;;;;22.85;12.20;;;13.40;99.90;;;;;;5036443;28;20061;-71
2022/10/27 02:29:33;;;;;;;23.67;12.38;;;13.40;99.90;;;;;;5052891;28;20045;-71
2022/10/27 02:32:04;;;;;;;25.40;12.23;;;13.30;99.90;;;;;;5036224;28;20080;-70
2022/10/27 02:34:32;;;;;;;21.60;12.27;;;13.30;99.90;;;;;;5036378;28;20049;-71
2022/10/27 02:36:58;;;;;;;27.65;12.27;;;13.20;99.90;;;;;;5052671;28;20052;-71
2022/10/27 02:39:23;;;;;;;23.65;12.90;;;13.20;99.90;;;;;;5052712;28;20051;-70
2022/10/27 02:41:49;;;;;;;26.50;12.98;;;13.20;99.90;;;;;;5036239;28;20044;-70
2022/10/27 02:44:15;;;;;;;22.48;13.38;;;13.30;99.90;;;;;;5052631;28;20049;-70
2022/10/27 02:46:40;;;;;;;31.08;13.07;;;13.30;99.90;;;;;;5052784;28;20378;-70
2022/10/27 02:49:06;;;;;;;25.92;12.90;;;13.20;99.90;;;;;;5035959;28;20075;-71
2022/10/27 02:51:32;;;;;;;22.42;12.85;;;13.10;99.90;;;;;;5052620;28;20076;-72
2022/10/27 02:53:58;;;;;;;24.98;12.82;;;13.10;99.90;;;;;;5052553;28;20135;-71
2022/10/27 02:56:23;;;;;;;25.13;12.48;;;13.10;99.90;;;;;;5052358;28;20502;-70
2022/10/27 02:58:49;;;;;;;25.25;12.68;;;13.00;99.90;;;;;;5052318;28;20106;-70
2022/10/27 03:01:15;;;;;;;24.83;13.38;;;13.00;99.90;;;;;;5052265;28;20056;-70
2022/10/27 03:03:41;;;;;;;31.80;13.23;;;13.00;99.90;;;;;;5035107;28;20061;-70
2022/10/27 03:06:06;;;;;;;29.80;14.00;;;12.90;99.90;;;;;;5035646;28;20124;-71
2022/10/27 03:08:32;;;;;;;27.67;13.00;;;12.90;99.90;;;;;;5035748;28;20052;-70
2022/10/27 03:10:58;;;;;;;24.95;12.93;;;12.90;99.90;;;;;;5052095;28;20049;-70
2022/10/27 03:13:23;;;;;;;28.65;12.85;;;12.90;99.90;;;;;;5035482;28;20044;-70
2022/10/27 03:15:49;;;;;;;25.48;12.45;;;12.90;99.90;;;;;;5052747;28;20555;-71
2022/10/27 03:18:15;;;;;;;26.23;13.60;;;12.90;99.90;;;;;;5052370;28;20048;-70
2022/10/27 03:20:40;;;;;;;25.65;13.13;;;12.90;99.90;;;;;;5052148;28;20083;-70
2022/10/27 03:23:06;;;;;;;29.27;13.50;;;12.90;99.90;;;;;;5035478;28;20056;-70
2022/10/27 03:25:32;;;;;;;29.00;13.88;;;13.00;99.90;;;;;;5035477;28;20413;-70
2022/10/27 03:27:57;;;;;;;26.50;12.98;;;13.00;99.90;;;;;;5052034;28;20106;-70
2022/10/27 03:30:23;;;;;;;25.38;13.30;;;12.90;99.90;;;;;;5050935;28;20499;-70
2022/10/27 03:32:50;;;;;;;27.20;13.15;;;12.90;99.90;;;;;;5051982;28;20114;-72
2022/10/27 03:35:18;;;;;;;26.10;12.75;;;12.90;99.90;;;;;;5035217;28;20053;-70
2022/10/27 03:37:44;;;;;;;27.08;13.38;;;12.90;99.90;;;;;;5035395;28;20048;-71
2022/10/27 03:40:10;;;;;;;30.55;14.43;;;12.90;99.90;;;;;;5051204;28;20067;-70
2022/10/27 03:42:41;;;;;;;28.08;14.50;;;13.00;99.90;;;;;;4702969;28;10000220;-71
2022/10/27 03:45:08;;;;;;;31.27;13.87;;;13.00;99.90;;;;;;5036178;28;20374;-70
2022/10/27 03:47:33;;;;;;;29.42;13.63;;;13.00;99.90;;;;;;5040063;28;20545;-70
2022/10/27 03:49:59;;;;;;;27.25;14.07;;;13.10;99.90;;;;;;5047017;28;20133;-70
2022/10/27 03:52:25;;;;;;;31.10;15.18;;;13.20;99.90;;;;;;5024251;28;20154;-70
2022/10/27 03:54:50;;;;;;;36.30;15.15;;;13.20;99.90;;;;;;5033828;28;20075;-70
2022/10/27 03:57:16;;;;;;;34.03;15.13;;;13.10;99.90;;;;;;5052597;28;20049;-71
2022/10/27 03:59:42;;;;;;;31.85;15.23;;;13.10;99.90;;;;;;5038400;28;20145;-70
2022/10/27 04:02:07;;;;;;;24.17;12.52;;;13.10;99.90;;;;;;5069167;28;20044;-73
2022/10/27 04:04:33;;;;;;;22.55;11.40;;;12.90;99.90;;;;;;5051685;28;20567;-72
2022/10/27 04:06:59;;;;;;;27.45;12.38;;;12.80;99.90;;;;;;5052458;28;20051;-70
2022/10/27 04:09:25;;;;;;;27.98;13.52;;;12.70;99.90;;;;;;5035840;28;20045;-71
2022/10/27 04:11:50;;;;;;;26.52;14.07;;;12.70;99.90;;;;;;5022170;28;20075;-72
2022/10/27 04:14:16;;;;;;;30.58;14.52;;;12.70;99.90;;;;;;5032256;28;20052;-71
2022/10/27 04:16:42;;;;;;;36.45;14.93;;;12.70;99.90;;;;;;5049432;28;20052;-71
2022/10/27 04:19:09;;;;;;;32.67;14.57;;;12.80;99.90;;;;;;5069110;28;20501;-71
2022/10/27 04:21:34;;;;;;;33.15;15.75;;;12.90;99.90;;;;;;5068542;28;20485;-71
2022/10/27 04:24:00;;;;;;;36.95;15.32;;;12.80;99.90;;;;;;5051783;28;20234;-71
2022/10/27 04:26:26;;;;;;;32.03;15.38;;;12.80;99.90;;;;;;5069049;28;20123;-71
2022/10/27 04:28:52;;;;;;;30.77;15.15;;;12.80;99.90;;;;;;5068859;28;20549;-71
2022/10/27 04:31:18;;;;;;;31.65;15.27;;;12.70;99.90;;;;;;5067247;28;20455;-71
2022/10/27 04:33:43;;;;;;;33.70;15.57;;;12.80;99.90;;;;;;5062827;28;20040;-71
2022/10/27 04:36:09;;;;;;;45.47;17.02;;;12.80;99.90;;;;;;5037740;28;20660;-70
2022/10/27 04:38:35;;;;;;;41.35;16.67;;;12.80;99.90;;;;;;5054003;28;20479;-71
2022/10/27 04:41:01;;;;;;;43.35;16.52;;;12.80;99.90;;;;;;5073073;28;20052;-70
2022/10/27 04:43:27;;;;;;;40.45;17.75;;;12.70;99.90;;;;;;5074601;28;20502;-70
2022/10/27 04:45:52;;;;;;;36.65;16.90;;;12.80;99.90;;;;;;5058493;28;20052;-70
2022/10/27 04:48:18;;;;;;;40.38;17.60;;;12.80;99.90;;;;;;5074679;28;20045;-70
2022/10/27 04:50:44;;;;;;;40.53;18.35;;;12.90;99.90;;;;;;5074937;28;20044;-70
2022/10/27 04:53:09;;;;;;;40.85;17.83;;;12.80;99.90;;;;;;5058015;28;20044;-70
2022/10/27 04:55:35;;;;;;;39.22;18.48;;;12.80;99.90;;;;;;5058027;28;20135;-70
2022/10/27 04:58:01;;;;;;;44.90;18.40;;;12.90;99.90;;;;;;5074806;28;20041;-70
2022/10/27 05:00:27;;;;;;;44.95;19.35;;;12.90;99.90;;;;;;5041013;28;20451;-71
2022/10/27 05:02:55;;;;;;;42.78;17.90;;;12.90;99.90;;;;;;5074403;28;20159;-71
2022/10/27 05:05:21;;;;;;;35.50;18.08;;;12.90;99.90;;;;;;5074401;28;20060;-71
2022/10/27 05:08:05;;;;;;;37.97;18.20;;;12.90;99.90;;;;;;5057943;28;20056;-71
2022/10/27 05:10:33;;;;;;;45.55;18.63;;;12.90;99.90;;;;;;5074453;28;20060;-71
2022/10/27 05:12:59;;;;;;;41.75;18.50;;;12.90;99.90;;;;;;5074490;28;20114;-71
2022/10/27 05:15:25;;;;;;;37.45;16.40;;;12.80;99.90;;;;;;5057595;28;20082;-71
2022/10/27 05:17:51;;;;;;;35.28;18.95;;;12.80;99.90;;;;;;5057664;28;20093;-71
2022/10/27 05:20:16;;;;;;;36.15;18.05;;;12.80;99.90;;;;;;5074102;28;20060;-70
2022/10/27 05:22:42;;;;;;;54.30;18.65;;;12.80;99.90;;;;;;5057457;28;20138;-71
2022/10/27 05:25:09;;;;;;;40.40;17.63;;;12.70;99.90;;;;;;5057677;28;20614;-70
2022/10/27 05:27:36;;;;;;;47.80;18.60;;;12.70;99.90;;;;;;5057309;28;20401;-71
2022/10/27 05:30:02;;;;;;;41.88;17.52;;;12.60;99.90;;;;;;5057546;28;20102;-70
2022/10/27 05:32:28;;;;;;;37.63;17.67;;;12.60;99.90;;;;;;5073959;28;20048;-70
2022/10/27 05:34:54;;;;;;;36.90;16.90;;;12.50;99.90;;;;;;5057458;28;20051;-71
2022/10/27 05:37:19;;;;;;;34.05;16.23;;;12.60;99.90;;;;;;5074128;28;20048;-70
2022/10/27 05:39:45;;;;;;;43.03;18.23;;;12.60;99.90;;;;;;5040450;28;20480;-70
2022/10/27 05:42:11;;;;;;;36.17;17.95;;;12.60;99.90;;;;;;5073960;28;20052;-71
2022/10/27 05:44:36;;;;;;;43.13;18.42;;;12.70;99.90;;;;;;5057033;28;20047;-71
2022/10/27 05:47:02;;;;;;;38.50;17.77;;;12.70;99.90;;;;;;5073627;28;20063;-71
2022/10/27 05:49:27;;;;;;;34.78;17.60;;;12.70;99.90;;;;;;5056929;28;20040;-70
2022/10/27 05:51:53;;;;;;;36.63;17.95;;;12.70;99.90;;;;;;5039619;28;20047;-71
2022/10/27 05:54:19;;;;;;;36.38;18.15;;;12.70;99.90;;;;;;5073821;28;20044;-70
2022/10/27 05:56:44;;;;;;;42.67;19.23;;;12.80;99.90;;;;;;5073526;28;20531;-71
2022/10/27 05:59:11;;;;;;;36.75;17.98;;;12.80;99.90;;;;;;5073523;28;20105;-70
2022/10/27 06:01:37;;;;;;;41.90;18.48;;;12.80;99.90;;;;;;5056688;28;20055;-71
2022/10/27 06:04:03;;;;;;;36.00;17.00;;;12.80;99.90;;;;;;5072923;28;20044;-71
2022/10/27 06:06:29;;;;;;;35.85;17.85;;;12.80;99.90;;;;;;5072909;28;20086;-70
2022/10/27 06:08:54;;;;;;;36.13;17.52;;;12.80;99.90;;;;;;5073380;28;20138;-71
2022/10/27 06:11:20;;;;;;;35.17;17.98;;;12.80;99.90;;;;;;5056657;28;20119;-70
2022/10/27 06:13:50;;;;;;;37.08;16.52;;;12.80;99.90;;;;;;5072761;28;20041;-70
2022/10/27 06:16:18;;;;;;;35.00;17.42;;;12.90;99.90;;;;;;5056485;28;20060;-70
2022/10/27 06:18:44;;;;;;;34.20;18.17;;;12.90;99.90;;;;;;5055727;28;20048;-71
2022/10/27 06:21:09;;;;;;;41.33;17.50;;;12.90;99.90;;;;;;5072603;28;20102;-70
2022/10/27 06:23:36;;;;;;;39.08;18.15;;;12.90;99.90;;;;;;5039517;28;20044;-70
2022/10/27 06:26:02;;;;;;;38.70;17.60;;;12.90;99.90;;;;;;5056380;28;20123;-70
2022/10/27 06:28:28;;;;;;;34.08;16.40;;;12.90;99.90;;;;;;5039598;28;20147;-70
2022/10/27 06:30:54;;;;;;;37.85;17.38;;;12.80;99.90;;;;;;5072931;28;20524;-70
2022/10/27 06:33:19;;;;;;;31.10;16.20;;;12.90;99.90;;;;;;5072886;28;20044;-71
2022/10/27 06:35:46;;;;;;;34.55;17.48;;;12.90;99.90;;;;;;4705887;28;10000569;-70
2022/10/27 06:38:15;;;;;;;32.80;16.80;;;13.00;99.90;;;;;;5058472;28;20080;-70
2022/10/27 06:40:44;;;;;;;41.78;18.10;;;13.00;99.90;;;;;;5045859;28;20063;-70
2022/10/27 06:43:11;;;;;;;39.63;17.92;;;13.10;99.90;;;;;;5039947;28;20080;-71
2022/10/27 06:45:38;;;;;;;34.58;17.23;;;13.20;99.90;;;;;;5049501;28;20041;-70
2022/10/27 06:48:05;;;;;;;33.35;16.50;;;13.20;99.90;;;;;;5049065;28;20053;-71
2022/10/27 06:50:32;;;;;;;32.85;16.65;;;13.30;99.90;;;;;;5050310;28;20076;-71
2022/10/27 06:52:58;;;;;;;38.90;17.25;;;13.50;99.90;;;;;;5054613;28;20049;-71
2022/10/27 06:55:24;;;;;;;33.45;17.30;;;13.50;99.90;;;;;;5033052;28;20132;-71
2022/10/27 06:57:49;;;;;;;33.03;16.42;;;13.60;99.90;;;;;;5032326;28;20135;-71
2022/10/27 07:00:16;;;;;;;33.17;15.82;;;13.70;99.90;;;;;;5049108;28;20560;-71
2022/10/27 07:02:41;;;;;;;28.75;15.80;;;13.70;99.90;;;;;;5048923;28;20052;-71
2022/10/27 07:05:08;;;;;;;27.55;15.77;;;13.90;99.90;;;;;;5053735;28;20060;-71
2022/10/27 07:07:33;;;;;;;32.70;16.05;;;14.00;99.90;;;;;;5026267;28;20065;-70
2022/10/27 07:09:59;;;;;;;31.20;15.70;;;14.10;99.90;;;;;;5035170;28;20052;-71
2022/10/27 07:12:25;;;;;;;34.65;15.98;;;14.10;99.90;;;;;;5052159;28;20049;-71
2022/10/27 07:14:51;;;;;;;30.27;15.38;;;14.30;99.90;;;;;;5035474;28;20053;-71
2022/10/27 07:17:16;;;;;;;26.88;14.20;;;14.30;99.90;;;;;;5035737;28;20102;-71
2022/10/27 07:19:42;;;;;;;24.90;15.18;;;14.40;99.90;;;;;;5051437;28;20128;-70
2022/10/27 07:22:08;;;;;;;30.92;15.13;;;14.50;99.90;;;;;;5035544;28;20048;-71
2022/10/27 07:24:33;;;;;;;28.85;13.77;;;14.50;99.90;;;;;;5035406;28;20136;-73
2022/10/27 07:26:59;;;;;;;27.50;13.90;;;14.60;99.90;;;;;;5052091;28;20171;-71
2022/10/27 07:29:24;;;;;;;29.88;13.55;;;14.70;99.90;;;;;;5035575;28;20111;-71
2022/10/27 07:31:50;;;;;;;26.40;14.23;;;14.70;99.90;;;;;;5051878;28;20045;-71
2022/10/27 07:34:16;;;;;;;21.20;12.80;;;14.80;99.90;;;;;;5035494;28;20084;-70
2022/10/27 07:36:41;;;;;;;21.13;12.52;;;14.90;99.90;;;;;;5051800;28;20500;-71
2022/10/27 07:39:07;;;;;;;21.52;12.88;;;14.90;99.90;;;;;;5035334;28;20095;-71
2022/10/27 07:41:33;;;;;;;18.48;11.02;;;15.00;99.90;;;;;;5035362;28;20045;-71
2022/10/27 07:43:59;;;;;;;23.60;12.00;;;15.00;99.90;;;;;;5051657;28;20037;-71
2022/10/27 07:46:24;;;;;;;19.15;10.85;;;15.10;99.90;;;;;;5035055;28;20045;-71
2022/10/27 07:48:50;;;;;;;23.85;11.88;;;15.10;99.90;;;;;;5034863;28;20080;-73
2022/10/27 07:51:16;;;;;;;21.67;12.35;;;15.10;99.90;;;;;;5035289;28;20099;-71
2022/10/27 07:53:42;;;;;;;19.05;11.07;;;15.10;99.90;;;;;;5051621;28;20049;-71
2022/10/27 07:56:07;;;;;;;18.55;10.85;;;15.20;99.90;;;;;;5051870;28;20051;-71
2022/10/27 07:58:33;;;;;;;21.25;11.25;;;15.20;99.90;;;;;;5052840;28;20494;-71
2022/10/27 08:00:59;;;;;;;17.70;10.93;;;15.20;99.90;;;;;;4699506;28;9999775;-71
2022/10/27 08:03:28;;;;;;;17.88;11.45;;;15.30;99.90;;;;;;5068791;28;20283;-70
2022/10/27 08:05:54;;;;;;;18.83;10.80;;;15.30;99.90;;;;;;5055189;28;20067;-71
2022/10/27 08:08:19;;;;;;;17.60;10.43;;;15.30;99.90;;;;;;5054238;28;20481;-71
2022/10/27 08:10:48;;;;;;;16.17;10.20;;;15.30;99.90;;;;;;5057506;28;20067;-71
2022/10/27 08:13:14;;;;;;;16.50;10.50;;;15.30;99.90;;;;;;5048946;28;20053;-71
2022/10/27 08:15:40;;;;;;;22.30;10.65;;;15.30;99.90;;;;;;5050037;28;20098;-74
2022/10/27 08:18:07;;;;;;;15.55;10.05;;;15.30;99.90;;;;;;5068546;28;20482;-71
2022/10/27 08:20:41;;;;;;;21.70;10.95;;;15.40;99.90;;;;;;5072674;28;20040;-71
2022/10/27 08:23:11;;;;;;;20.95;11.23;;;15.50;99.90;;;;;;5072473;28;20044;-71
2022/10/27 08:25:37;;;;;;;19.08;10.90;;;15.50;99.90;;;;;;5072966;28;20041;-72
2022/10/27 08:28:03;;;;;;;19.73;10.00;;;15.60;99.90;;;;;;5072838;28;20105;-72
2022/10/27 08:30:30;;;;;;;20.85;10.40;;;15.70;99.90;;;;;;5038244;28;20446;-71
2022/10/27 08:32:58;;;;;;;15.68;10.30;;;15.70;99.90;;;;;;5035823;28;20041;-72
2022/10/27 08:35:25;;;;;;;16.23;10.30;;;15.70;99.90;;;;;;5065918;28;20036;-71
2022/10/27 08:38:03;;;;;;;19.13;10.23;;;15.70;99.90;;;;;;5052409;28;20055;-71
2022/10/27 08:40:39;;;;;;;17.55;9.68;;;15.80;99.90;;;;;;5052348;28;20124;-72
2022/10/27 08:43:23;;;;;;;16.70;9.85;;;15.70;99.90;;;;;;5052493;28;20068;-71
2022/10/27 08:45:53;;;;;;;18.48;9.88;;;15.80;99.90;;;;;;5057540;28;20048;-71
2022/10/27 08:48:24;;;;;;;16.85;9.82;;;15.70;99.90;;;;;;5041726;28;20405;-71
2022/10/27 08:50:50;;;;;;;15.82;9.68;;;15.70;99.90;;;;;;5052300;28;20806;-71
2022/10/27 08:53:23;;;;;;;12.23;9.73;;;15.70;99.90;;;;;;5052554;28;20127;-72
2022/10/27 08:55:52;;;;;;;17.33;10.05;;;15.60;99.90;;;;;;5052116;28;20041;-71
2022/10/27 08:58:47;;;;;;;16.27;9.80;;;15.70;99.90;;;;;;5052353;28;20045;-71
2022/10/27 09:01:26;;;;;;;15.27;9.95;;;15.80;99.90;;;;;;5063738;28;20116;-71
2022/10/27 09:04:37;;;;;;;20.27;9.27;;;15.80;99.90;;;;;;5056125;28;20150;-71
2022/10/27 09:07:18;;;;;;;14.40;9.65;;;15.90;99.90;;;;;;5046350;28;20087;-71
2022/10/27 09:09:54;;;;;;;21.30;10.48;;;16.10;99.90;;;;;;5050064;28;20443;-71
2022/10/27 09:12:42;;;;;;;15.50;9.68;;;16.30;99.90;;;;;;5047499;28;20080;-71
2022/10/27 09:15:08;;;;;;;14.60;9.07;;;16.50;99.90;;;;;;5035153;28;20045;-71
2022/10/27 09:17:49;;;;;;;15.23;9.63;;;16.70;99.90;;;;;;5051960;28;20036;-72
2022/10/27 09:20:45;;;;;;;17.63;9.20;;;16.90;99.90;;;;;;5051803;28;20727;-71
2022/10/27 09:23:21;;;;;;;16.75;8.80;;;17.00;99.90;;;;;;5046417;28;20552;-71
2022/10/27 09:25:51;;;;;;;13.32;8.27;;;17.20;99.90;;;;;;5039056;28;20052;-71
2022/10/27 09:28:50;;;;;;;14.27;8.68;;;17.30;99.90;;;;;;5035922;28;20053;-71
2022/10/27 09:31:20;;;;;;;14.45;8.50;;;17.40;99.90;;;;;;5051386;28;20472;-71
2022/10/27 09:34:11;;;;;;;12.82;8.25;;;17.50;99.90;;;;;;5035099;28;20132;-72
2022/10/27 09:36:38;;;;;;;14.40;7.13;;;17.60;99.90;;;;;;5051355;28;20103;-72
2022/10/27 09:39:04;;;;;;;14.70;7.70;;;17.70;99.90;;;;;;5034478;28;20044;-72
2022/10/27 09:41:30;;;;;;;13.65;7.43;;;17.90;99.90;;;;;;5034691;28;20072;-71
2022/10/27 09:43:58;;;;;;;13.52;7.07;;;17.90;99.90;;;;;;5034595;28;20060;-71
2022/10/27 09:46:29;;;;;;;14.00;7.30;;;17.90;99.90;;;;;;5013125;28;20390;-71
2022/10/27 09:48:59;;;;;;;12.05;7.32;;;18.00;99.90;;;;;;5034325;28;20107;-71
2022/10/27 09:51:47;;;;;;;12.90;6.70;;;18.10;99.90;;;;;;5051531;28;20106;-71
2022/10/27 09:54:30;;;;;;;9.95;6.25;;;18.10;99.90;;;;;;5036680;28;20366;-71
2022/10/27 09:57:05;;;;;;;9.27;6.05;;;18.20;99.90;;;;;;5033726;28;20044;-72
2022/10/27 09:59:32;;;;;;;9.15;6.00;;;18.20;99.90;;;;;;5051357;28;20048;-72
2022/10/27 10:01:58;;;;;;;9.90;6.13;;;18.40;99.90;;;;;;5032997;28;20545;-71
2022/10/27 10:04:33;;;;;;;11.05;6.55;;;18.50;99.90;;;;;;5032897;28;20052;-71
2022/10/27 10:07:05;;;;;;;11.60;5.97;;;18.50;99.90;;;;;;5054027;28;20041;-71
2022/10/27 10:09:31;;;;;;;9.02;5.45;;;18.60;99.90;;;;;;5060667;28;20048;-72
2022/10/27 10:12:23;;;;;;;8.73;5.20;;;18.60;99.90;;;;;;5035756;28;20053;-72
2022/10/27 10:14:49;;;;;;;9.80;5.47;;;18.50;99.90;;;;;;5051168;28;20045;-71
2022/10/27 10:17:26;;;;;;;9.02;5.50;;;18.50;99.90;;;;;;5050422;28;20045;-71
2022/10/27 10:19:54;;;;;;;8.38;4.80;;;18.50;99.90;;;;;;5050531;28;20124;-71
2022/10/27 10:22:32;;;;;;;10.23;4.80;;;18.60;99.90;;;;;;5028420;28;20501;-71
2022/10/27 10:25:22;;;;;;;7.90;4.45;;;18.60;99.90;;;;;;5050092;28;20533;-72
2022/10/27 10:27:57;;;;;;;5.80;4.47;;;18.60;99.90;;;;;;5050556;28;20045;-71
2022/10/27 10:30:23;;;;;;;7.25;3.85;;;18.70;99.90;;;;;;5034196;28;20056;-72
2022/10/27 10:32:52;;;;;;;8.30;4.03;;;18.90;99.90;;;;;;5050494;28;20057;-72
2022/10/27 10:35:42;;;;;;;5.03;3.58;;;18.90;99.90;;;;;;5049999;28;20049;-71
2022/10/27 10:38:23;;;;;;;5.90;3.10;;;18.90;99.90;;;;;;5049641;28;20064;-71
2022/10/27 10:40:57;;;;;;;5.20;3.05;;;19.10;99.90;;;;;;5033643;28;20053;-70
2022/10/27 10:43:23;;;;;;;6.07;2.95;;;19.10;99.90;;;;;;5050086;28;20044;-71
2022/10/27 10:45:53;;;;;;;6.07;2.58;;;19.20;99.90;;;;;;5050084;28;20056;-70
2022/10/27 10:48:32;;;;;;;4.95;2.70;;;19.20;99.90;;;;;;5032868;28;20548;-71
2022/10/27 10:50:59;;;;;;;10.02;3.40;;;19.20;99.90;;;;;;5050143;28;20618;-70
2022/10/27 10:53:37;;;;;;;7.47;3.03;;;19.20;99.90;;;;;;5050048;28;20173;-70
2022/10/27 10:56:23;;;;;;;7.97;3.00;;;19.30;99.90;;;;;;5049839;28;20075;-70
2022/10/27 10:59:00;;;;;;;8.60;3.15;;;19.30;99.90;;;;;;5033464;28;20102;-70
2022/10/27 11:01:47;;;;;;;10.73;3.20;;;19.30;99.90;;;;;;5052661;28;20044;-70
2022/10/27 11:04:17;;;;;;;8.00;2.83;;;19.40;99.90;;;;;;5032828;28;20084;-71
2022/10/27 11:07:05;;;;;;;5.85;2.80;;;19.40;99.90;;;;;;5054286;28;20049;-72
2022/10/27 11:09:51;;;;;;;6.07;2.85;;;19.30;99.90;;;;;;5062640;28;20102;-70
2022/10/27 11:12:36;;;;;;;4.88;2.70;;;19.40;99.90;;;;;;5032690;28;20059;-70
2022/10/27 11:15:18;;;;;;;6.95;2.53;;;19.30;99.90;;;;;;5049436;28;20056;-70
2022/10/27 11:17:48;;;;;;;4.93;2.65;;;19.30;99.90;;;;;;5034906;28;20508;-70
2022/10/27 11:20:24;;;;;;;5.55;2.60;;;19.40;99.90;;;;;;5033051;28;20052;-71
2022/10/27 11:22:52;;;;;;;6.78;2.40;;;19.50;99.90;;;;;;5032968;28;20048;-71
2022/10/27 11:25:33;;;;;;;5.55;2.42;;;19.60;99.90;;;;;;5032539;28;20062;-71
2022/10/27 11:28:10;;;;;;;3.95;2.22;;;19.80;99.90;;;;;;5032857;28;20417;-71
2022/10/27 11:30:42;;;;;;;4.78;2.30;;;20.10;99.90;;;;;;5032824;28;20049;-71
2022/10/27 11:33:20;;;;;;;4.85;2.15;;;20.20;99.90;;;;;;5036295;28;20103;-71
2022/10/27 11:35:50;;;;;;;8.20;2.20;;;20.30;99.90;;;;;;5049414;28;20083;-71
2022/10/27 11:38:22;;;;;;;4.30;1.95;;;20.30;99.90;;;;;;5032634;28;20053;-71
2022/10/27 11:41:03;;;;;;;6.07;2.20;;;20.40;99.90;;;;;;5049241;28;20067;-71
2022/10/27 11:43:40;;;;;;;5.03;1.90;;;20.50;99.90;;;;;;5049342;28;20045;-71
2022/10/27 11:46:13;;;;;;;5.93;2.10;;;20.80;99.90;;;;;;5049198;28;20044;-72
2022/10/27 11:48:49;;;;;;;7.40;1.88;;;20.80;99.90;;;;;;5032369;28;20045;-71
2022/10/27 11:51:18;;;;;;;5.88;2.08;;;20.70;99.90;;;;;;5051138;28;20048;-72
2022/10/27 11:53:44;;;;;;;2.90;2.00;;;20.60;99.90;;;;;;5053383;28;20049;-70
2022/10/27 11:56:24;;;;;;;3.72;1.65;;;20.30;99.90;;;;;;5053104;28;20416;-71
2022/10/27 11:59:28;;;;;;;3.45;1.85;;;20.10;99.90;;;;;;5053500;28;20040;-71
2022/10/27 12:02:16;;;;;;;5.85;2.10;;;19.90;99.90;;;;;;5029413;28;20521;-71
2022/10/27 12:04:58;;;;;;;3.63;1.92;;;19.80;99.90;;;;;;5053314;28;20060;-71
2022/10/27 12:07:52;;;;;;;4.85;2.10;;;19.80;99.90;;;;;;5053028;28;20045;-71
2022/10/27 12:10:38;;;;;;;7.90;2.13;;;19.90;99.90;;;;;;5063062;28;20048;-71
2022/10/27 12:13:25;;;;;;;10.88;2.40;;;19.90;99.90;;;;;;5056146;28;20550;-71
2022/10/27 12:16:19;;;;;;;6.03;2.13;;;20.00;99.90;;;;;;5056680;28;20052;-71
2022/10/27 12:18:59;;;;;;;10.25;2.38;;;20.00;99.90;;;;;;5056492;28;20099;-71
2022/10/27 12:21:36;;;;;;;8.52;2.45;;;19.90;99.90;;;;;;5072869;28;20397;-71
2022/10/27 12:24:23;;;;;;;6.15;2.00;;;19.80;99.90;;;;;;5055986;28;20476;-70
2022/10/27 12:26:54;;;;;;;8.18;2.13;;;19.80;99.90;;;;;;5058641;28;20051;-71
2022/10/27 12:29:21;;;;;;;;;;;20.40;99.90;;;;;;5052866;28;20056;-71
2022/10/27 12:31:56;;;;;;;12.13;2.10;;;21.10;99.90;;;;;;5052877;28;20617;-71
2022/10/27 12:34:29;;;;;;;4.72;1.70;;;21.70;99.90;;;;;;5035949;28;20064;-71
2022/10/27 12:37:15;;;;;;;4.75;1.90;;;22.50;99.90;;;;;;5052457;28;20538;-71
2022/10/27 12:40:03;;;;;;;7.07;2.20;;;22.70;99.90;;;;;;5049488;28;20052;-72
2022/10/27 12:43:06;;;;;;;5.50;2.00;;;22.80;99.90;;;;;;5056148;28;20572;-72
2022/10/27 12:45:36;;;;;;;7.43;1.83;;;22.60;99.90;;;;;;5038969;28;20434;-71
2022/10/27 12:48:11;;;;;;;5.78;1.83;;;22.30;99.90;;;;;;5035768;28;20077;-71
2022/10/27 12:50:45;;;;;;;3.90;1.88;;;21.70;99.90;;;;;;5051961;28;20063;-71
2022/10/27 12:53:23;;;;;;;10.52;2.15;;;21.30;99.90;;;;;;5052288;28;20072;-71